Time;durP1;ratioP1;P1;durP2;ratioP2;P2;SDS_P1;SDS_P2;PMS_P1;PMS_P2;Temp;Humidity;BMP_temperature;BMP_pressure;BME280_temperature;BME280_humidity;BME280_pressure;Samples;Min_cycle;Max_cycle;Signal;HPM_P1;HPM_P2
2022/10/14 00:01:18;;;;;;;26.80;16.35;;;;;;;10.83;95.08;98142.22;1779342;80;21024;-76
2022/10/14 00:03:48;;;;;;;29.42;16.50;;;;;;;10.81;94.98;98155.98;1753576;80;22124;-74
2022/10/14 00:06:21;;;;;;;31.20;17.62;;;;;;;10.76;94.78;98148.14;1780107;80;20953;-75
2022/10/14 00:08:51;;;;;;;33.85;16.87;;;;;;;10.73;94.68;98151.34;1778540;80;20987;-75
2022/10/14 00:11:23;;;;;;;27.45;16.07;;;;;;;10.72;94.10;98146.96;1769748;80;20949;-75
2022/10/14 00:13:53;;;;;;;30.97;16.62;;;;;;;10.74;94.42;98139.38;1779444;80;21008;-75
2022/10/14 00:16:30;;;;;;;29.80;17.62;;;;;;;10.74;94.45;98142.47;1768723;80;20982;-75
2022/10/14 00:18:58;;;;;;;29.57;16.40;;;;;;;10.81;94.53;98145.38;1778835;80;21326;-75
2022/10/14 00:21:26;;;;;;;34.30;17.67;;;;;;;10.82;94.88;98137.84;1779548;80;20946;-75
2022/10/14 00:23:54;;;;;;;31.80;17.40;;;;;;;10.83;94.60;98139.13;1779145;80;21494;-74
2022/10/14 00:26:26;;;;;;;30.80;17.00;;;;;;;10.82;94.56;98138.72;1753850;80;21390;-75
2022/10/14 00:28:54;;;;;;;29.25;17.15;;;;;;;10.85;94.60;98135.55;1770363;80;20989;-75
2022/10/14 00:31:21;;;;;;;34.53;18.00;;;;;;;10.85;94.72;98135.11;1775176;80;21375;-74
2022/10/14 00:33:49;;;;;;;28.83;16.95;;;;;;;10.86;94.57;98135.95;1780047;80;21017;-75
2022/10/14 00:36:19;;;;;;;33.30;18.85;;;;;;;10.84;94.62;98134.70;1779853;80;21028;-75
2022/10/14 00:38:49;;;;;;;30.02;18.62;;;;;;;10.79;94.15;98128.19;1780076;80;20996;-75
2022/10/14 00:41:21;;;;;;;32.00;18.37;;;;;;;10.74;93.84;98128.78;1768688;80;20977;-75
2022/10/14 00:44:05;;;;;;;34.90;18.25;;;;;;;10.73;93.91;98131.47;1780038;80;20945;-75
2022/10/14 00:46:38;;;;;;;32.55;17.35;;;;;;;10.67;94.06;98126.75;1780857;80;21064;-75
2022/10/14 00:49:14;;;;;;;;;;;;;;;10.65;94.20;98127.27;1773542;80;20986;-75
2022/10/14 00:51:53;;;;;;;35.58;17.57;;;;;;;10.63;94.22;98121.59;1780699;80;20337;-74
2022/10/14 00:54:24;;;;;;;32.98;17.67;;;;;;;10.61;94.35;98122.07;1780123;80;20949;-75
2022/10/14 00:56:53;;;;;;;32.60;18.57;;;;;;;10.58;94.05;98115.08;1750477;80;21028;-75
2022/10/14 00:59:20;;;;;;;34.30;17.80;;;;;;;10.50;93.75;98121.91;1768631;80;21008;-75
2022/10/14 01:01:47;;;;;;;38.10;18.67;;;;;;;10.46;94.25;98119.41;1792496;80;20977;-75
2022/10/14 01:04:13;;;;;;;33.30;18.65;;;;;;;10.43;93.91;98116.34;1794665;80;21020;-75
2022/10/14 01:06:57;;;;;;;36.03;18.07;;;;;;;10.38;94.16;98115.61;1772878;80;21032;-75
2022/10/14 01:09:43;;;;;;;33.30;18.82;;;;;;;10.37;94.78;98113.40;1794856;80;20980;-75
2022/10/14 01:12:27;;;;;;;43.20;20.40;;;;;;;10.34;94.63;98115.27;1793878;80;20984;-75
2022/10/14 01:15:03;;;;;;;41.33;19.37;;;;;;;10.28;94.47;98121.14;1755254;80;21004;-75
2022/10/14 01:17:39;;;;;;;46.13;21.77;;;;;;;10.24;94.37;98117.27;1794961;80;21333;-75
2022/10/14 01:20:44;;;;;;;38.67;20.88;;;;;;;10.20;94.16;98120.47;1772627;80;20995;-75
2022/10/14 01:23:47;;;;;;;38.85;19.62;;;;;;;10.12;94.32;98111.84;1763848;80;20999;-75
2022/10/14 01:26:35;;;;;;;48.78;24.20;;;;;;;10.08;94.88;98109.73;1762516;80;21015;-75
2022/10/14 01:29:25;;;;;;;54.77;26.00;;;;;;;10.08;94.96;98110.20;1791606;80;21031;-75
2022/10/14 01:32:03;;;;;;;62.53;29.82;;;;;;;10.08;95.38;98109.73;1794124;80;20980;-75
2022/10/14 01:34:37;;;;;;;62.60;32.53;;;;;;;10.03;94.80;98113.84;1763279;80;20972;-75
2022/10/14 01:37:09;;;;;;;60.00;30.35;;;;;;;9.98;94.52;98110.87;1786438;80;20976;-75
2022/10/14 01:39:47;;;;;;;67.90;32.78;;;;;;;9.94;94.47;98115.39;1783653;80;20958;-75
2022/10/14 01:42:19;;;;;;;64.27;31.27;;;;;;;9.87;94.79;98112.47;1787744;80;20964;-75
2022/10/14 01:44:51;;;;;;;65.20;33.53;;;;;;;9.88;95.49;98111.55;1782532;80;21043;-75
2022/10/14 01:47:20;;;;;;;53.85;26.85;;;;;;;9.91;95.58;98106.19;1786967;80;21020;-75
2022/10/14 01:49:55;;;;;;;45.23;23.60;;;;;;;9.92;95.73;98114.54;1794941;80;21044;-75
2022/10/14 01:52:26;;;;;;;35.43;16.42;;;;;;;9.87;95.19;98113.34;1778568;80;21000;-75
2022/10/14 01:54:58;;;;;;;33.20;15.05;;;;;;;9.80;95.28;98109.57;1789407;80;21402;-75
2022/10/14 01:57:29;;;;;;;31.45;13.83;;;;;;;9.73;95.31;98106.20;1762549;80;21026;-75
2022/10/14 01:59:57;;;;;;;31.82;14.75;;;;;;;9.67;95.31;98101.91;1795057;80;21471;-75
2022/10/14 02:02:25;;;;;;;29.67;14.28;;;;;;;9.60;95.21;98114.89;1780276;80;21037;-75
2022/10/14 02:04:52;;;;;;;28.80;15.20;;;;;;;9.58;95.26;98112.72;1764406;80;21419;-74
2022/10/14 02:07:30;;;;;;;28.32;14.10;;;;;;;9.56;95.23;98104.84;1775530;80;21004;-75
2022/10/14 02:10:33;;;;;;;28.70;13.78;;;;;;;9.59;95.31;98106.07;1792778;80;20945;-75
2022/10/14 02:13:11;;;;;;;26.25;13.80;;;;;;;9.63;95.31;98104.21;1782680;80;21023;-75
2022/10/14 02:16:04;;;;;;;23.38;12.53;;;;;;;9.61;95.52;98105.59;1693047;83;21016;-75
2022/10/14 02:18:57;;;;;;;24.18;12.80;;;;;;;9.66;95.65;98101.50;1763692;80;21012;-75
2022/10/14 02:21:37;;;;;;;25.30;12.53;;;;;;;9.66;95.58;98098.86;1781112;80;21371;-75
2022/10/14 02:24:20;;;;;;;22.67;13.05;;;;;;;9.69;95.87;98100.12;1772093;80;20985;-75
2022/10/14 02:26:50;;;;;;;25.92;12.95;;;;;;;9.73;95.42;98107.52;1772952;80;20992;-75
2022/10/14 02:29:19;;;;;;;26.37;12.68;;;;;;;9.69;95.16;98097.91;1763610;80;21023;-75
2022/10/14 02:31:47;;;;;;;23.30;12.13;;;;;;;9.64;95.08;98096.24;1752625;80;21016;-75
2022/10/14 02:34:19;;;;;;;27.90;12.78;;;;;;;9.63;95.24;98098.48;1772856;80;21011;-75
2022/10/14 02:36:48;;;;;;;32.90;12.88;;;;;;;9.57;95.11;98097.75;1795014;80;21019;-75
2022/10/14 02:39:20;;;;;;;29.32;12.80;;;;;;;9.53;95.44;98099.61;1808762;78;21052;-75
2022/10/14 02:41:47;;;;;;;24.43;12.18;;;;;;;9.53;95.54;98096.08;1794968;80;21486;-75
2022/10/14 02:44:13;;;;;;;25.68;12.35;;;;;;;9.47;95.26;98097.97;1788329;80;21425;-75
2022/10/14 02:46:41;;;;;;;31.35;13.32;;;;;;;9.44;95.32;98103.34;1772309;80;21011;-75
2022/10/14 02:49:10;;;;;;;29.15;13.15;;;;;;;9.45;95.73;98093.62;1775809;80;21448;-75
2022/10/14 02:51:36;;;;;;;24.32;11.97;;;;;;;9.46;95.93;98094.91;1786100;80;21091;-75
2022/10/14 02:54:03;;;;;;;22.25;10.98;;;;;;;9.50;95.90;98098.34;1771622;80;21039;-75
2022/10/14 02:56:29;;;;;;;22.37;11.75;;;;;;;9.49;95.39;98092.20;1785562;80;21366;-75
2022/10/14 02:58:58;;;;;;;25.10;10.23;;;;;;;9.50;95.50;98093.05;1777847;80;21007;-75
2022/10/14 03:01:27;;;;;;;21.33;10.55;;;;;;;9.49;95.38;98094.85;1794766;80;20977;-75
2022/10/14 03:03:54;;;;;;;23.75;11.10;;;;;;;9.48;95.44;98087.80;1782144;80;20952;-75
2022/10/14 03:06:21;;;;;;;21.93;11.55;;;;;;;9.46;95.37;98092.70;1785354;80;20945;-75
2022/10/14 03:08:49;;;;;;;21.77;11.35;;;;;;;9.47;95.36;98092.67;1794744;80;21398;-75
2022/10/14 03:11:15;;;;;;;24.63;12.13;;;;;;;9.42;95.12;98089.74;1775618;80;21029;-75
2022/10/14 03:13:42;;;;;;;25.20;11.95;;;;;;;9.42;95.04;98079.16;1769666;80;20952;-75
2022/10/14 03:16:09;;;;;;;24.77;12.40;;;;;;;9.39;95.38;98076.14;1786418;80;20973;-75
2022/10/14 03:18:37;;;;;;;24.98;11.95;;;;;;;9.37;96.09;98077.93;1789936;80;21212;-75
2022/10/14 03:21:05;;;;;;;28.50;12.88;;;;;;;9.36;95.38;98063.86;1763439;80;21004;-75
2022/10/14 03:23:34;;;;;;;21.87;10.98;;;;;;;9.33;95.34;98078.46;1787936;80;20996;-75
2022/10/14 03:26:00;;;;;;;23.60;11.70;;;;;;;9.30;95.34;98075.88;1794127;80;21397;-75
2022/10/14 03:28:31;;;;;;;22.93;10.75;;;;;;;9.27;95.17;98075.08;1771471;80;21410;-75
2022/10/14 03:31:02;;;;;;;23.87;12.18;;;;;;;9.20;95.05;98072.59;1782115;79;21016;-76
2022/10/14 03:33:30;;;;;;;22.87;12.58;;;;;;;9.16;95.04;98077.52;1771842;80;22224;-76
2022/10/14 03:35:59;;;;;;;21.40;11.75;;;;;;;9.13;94.82;98073.61;1772430;80;21340;-76
2022/10/14 03:38:27;;;;;;;22.27;11.90;;;;;;;9.07;95.21;98075.08;1792597;80;20967;-76
2022/10/14 03:40:55;;;;;;;24.40;12.95;;;;;;;9.04;95.04;98071.17;1772070;80;21405;-76
2022/10/14 03:43:21;;;;;;;24.67;12.13;;;;;;;9.00;94.51;98070.85;1778463;80;20995;-76
2022/10/14 03:45:50;;;;;;;19.95;12.60;;;;;;;8.97;94.87;98073.11;1789563;80;21528;-76
2022/10/14 03:48:18;;;;;;;23.92;12.20;;;;;;;8.97;95.23;98068.67;1764193;80;21419;-76
2022/10/14 03:50:47;;;;;;;24.05;12.70;;;;;;;8.93;94.97;98065.67;1776937;80;20980;-76
2022/10/14 03:53:14;;;;;;;23.38;11.45;;;;;;;8.91;95.72;98060.00;1782258;80;21378;-76
2022/10/14 03:55:40;;;;;;;22.22;11.38;;;;;;;8.90;96.27;98067.52;1778949;80;20989;-76
2022/10/14 03:58:11;;;;;;;33.65;13.00;;;;;;;8.88;95.99;98070.66;1794816;80;20928;-76
2022/10/14 04:00:37;;;;;;;25.12;12.25;;;;;;;8.84;95.80;98072.03;1780690;80;21359;-75
2022/10/14 04:03:09;;;;;;;34.30;13.25;;;;;;;8.85;95.80;98069.80;1779516;80;20993;-76
2022/10/14 04:05:40;;;;;;;31.48;13.10;;;;;;;8.85;95.76;98067.16;1786882;80;21434;-76
2022/10/14 04:08:09;;;;;;;24.65;12.00;;;;;;;8.83;95.72;98061.49;1787209;80;21502;-76
2022/10/14 04:10:36;;;;;;;31.85;14.07;;;;;;;8.81;95.78;98052.73;1787623;80;20987;-75
2022/10/14 04:13:03;;;;;;;28.60;13.08;;;;;;;8.81;96.12;98056.23;1787772;80;20961;-75
2022/10/14 04:15:32;;;;;;;29.50;12.70;;;;;;;8.83;95.73;98051.80;1777938;80;21039;-75
2022/10/14 04:18:00;;;;;;;26.57;13.38;;;;;;;8.84;96.25;98059.27;1769398;80;21028;-75
2022/10/14 04:20:28;;;;;;;30.90;13.43;;;;;;;8.89;96.27;98060.03;1765476;80;20952;-75
2022/10/14 04:22:59;;;;;;;26.93;13.18;;;;;;;8.95;96.19;98049.78;1787654;80;21360;-75
2022/10/14 04:25:26;;;;;;;27.87;12.40;;;;;;;9.01;96.93;98052.76;1787504;80;21043;-76
2022/10/14 04:27:55;;;;;;;25.20;13.58;;;;;;;9.07;96.48;98057.89;1786373;80;20953;-76
2022/10/14 04:30:23;;;;;;;31.68;13.60;;;;;;;9.10;96.96;98059.16;1787151;80;20985;-76
2022/10/14 04:32:52;;;;;;;30.82;14.55;;;;;;;9.10;96.52;98049.44;1775214;80;20964;-76
2022/10/14 04:35:19;;;;;;;35.78;15.13;;;;;;;9.13;96.61;98056.43;1730033;80;21453;-74
2022/10/14 04:37:51;;;;;;;41.58;15.88;;;;;;;9.13;96.91;98051.61;1760435;80;20997;-74
2022/10/14 04:40:24;;;;;;;40.03;17.50;;;;;;;9.14;96.80;98059.52;1777366;80;20979;-73
2022/10/14 04:42:57;;;;;;;42.03;18.52;;;;;;;9.15;96.80;98056.40;1765633;80;21060;-74
2022/10/14 04:45:25;;;;;;;45.10;18.55;;;;;;;9.17;97.01;98057.25;1787325;80;20997;-76
2022/10/14 04:47:56;;;;;;;48.58;18.92;;;;;;;9.13;96.86;98053.78;1787344;80;20947;-76
2022/10/14 04:50:23;;;;;;;37.48;16.32;;;;;;;9.15;96.86;98054.64;1787520;80;20945;-75
2022/10/14 04:53:10;;;;;;;32.23;15.32;;;;;;;9.15;96.95;98052.44;1775591;80;20937;-76
2022/10/14 04:55:40;;;;;;;29.42;14.05;;;;;;;9.18;96.67;98052.38;1766861;80;21481;-75
2022/10/14 04:58:07;;;;;;;25.40;12.60;;;;;;;9.18;96.45;98051.91;1759662;80;21344;-75
2022/10/14 05:00:35;;;;;;;29.50;13.45;;;;;;;9.18;96.49;98048.41;1787178;80;21012;-75
2022/10/14 05:03:04;;;;;;;22.32;11.63;;;;;;;9.19;96.63;98048.38;1770430;80;20996;-75
2022/10/14 05:05:33;;;;;;;23.92;11.43;;;;;;;9.21;96.32;98042.59;1774427;80;20972;-75
2022/10/14 05:08:01;;;;;;;24.18;12.28;;;;;;;9.22;96.26;98044.80;1773693;80;20928;-75
2022/10/14 05:10:30;;;;;;;22.30;12.68;;;;;;;9.28;96.48;98039.79;1771866;80;21373;-75
2022/10/14 05:12:56;;;;;;;28.35;12.53;;;;;;;9.34;96.62;98042.31;1763837;80;21445;-76
2022/10/14 05:15:24;;;;;;;21.77;11.08;;;;;;;9.42;96.73;98040.80;1773594;80;21425;-75
2022/10/14 05:17:57;;;;;;;21.60;11.45;;;;;;;9.47;96.29;98038.45;1772490;80;20960;-76
2022/10/14 05:20:25;;;;;;;21.17;10.95;;;;;;;9.53;96.10;98040.52;1769038;80;20984;-76
2022/10/14 05:22:53;;;;;;;43.55;22.48;;;;;;;9.55;95.96;98042.22;1779344;80;20992;-74
2022/10/14 05:25:20;;;;;;;34.15;19.62;;;;;;;9.55;95.41;98038.25;1784830;80;21410;-76
2022/10/14 05:27:47;;;;;;;18.62;11.55;;;;;;;9.52;95.00;98043.64;1776627;80;20975;-76
2022/10/14 05:30:15;;;;;;;19.20;10.88;;;;;;;9.48;94.98;98044.14;1773026;80;21395;-76
2022/10/14 05:32:44;;;;;;;20.48;11.43;;;;;;;9.44;95.01;98048.23;1794526;80;20951;-76
2022/10/14 05:35:10;;;;;;;18.80;11.05;;;;;;;9.39;95.14;98045.72;1795042;80;21051;-76
2022/10/14 05:37:39;;;;;;;19.77;11.80;;;;;;;9.39;95.23;98047.04;1791027;80;20937;-74
2022/10/14 05:40:08;;;;;;;22.42;12.78;;;;;;;9.38;94.83;98047.92;1764094;80;20937;-73
2022/10/14 05:42:35;;;;;;;20.88;11.88;;;;;;;9.37;94.68;98044.87;1772861;80;20976;-73
2022/10/14 05:45:02;;;;;;;22.77;11.83;;;;;;;9.33;94.92;98050.69;1787704;80;21066;-76
2022/10/14 05:47:31;;;;;;;19.95;11.38;;;;;;;9.32;95.01;98046.31;1798076;78;21048;-76
2022/10/14 05:50:02;;;;;;;24.80;13.13;;;;;;;9.32;94.68;98039.70;1786418;80;20948;-76
2022/10/14 05:52:31;;;;;;;21.35;12.85;;;;;;;9.32;95.08;98038.38;1736833;81;21362;-72
2022/10/14 05:54:58;;;;;;;22.37;12.18;;;;;;;9.34;94.74;98040.52;1791968;80;21202;-76
2022/10/14 05:57:27;;;;;;;20.92;12.40;;;;;;;9.36;94.97;98043.13;1774536;80;21438;-77
2022/10/14 05:59:54;;;;;;;22.40;12.23;;;;;;;9.38;95.08;98044.84;1764027;80;21043;-76
2022/10/14 06:02:21;;;;;;;25.30;12.28;;;;;;;9.41;94.41;98045.22;1769362;80;21024;-76
2022/10/14 06:04:47;;;;;;;25.88;12.35;;;;;;;9.42;94.59;98051.39;1757815;80;21032;-78
2022/10/14 06:07:14;;;;;;;18.82;11.57;;;;;;;9.42;94.40;98052.70;1769278;80;21439;-78
2022/10/14 06:09:41;;;;;;;19.07;11.57;;;;;;;9.42;94.34;98051.39;1759848;80;21056;-77
2022/10/14 06:12:09;;;;;;;17.87;11.08;;;;;;;9.39;94.19;98047.04;1779643;80;20969;-78
2022/10/14 06:14:38;;;;;;;16.20;10.00;;;;;;;9.40;93.99;98046.12;1763024;80;21391;-79
2022/10/14 06:17:05;;;;;;;30.23;16.50;;;;;;;9.36;93.96;98052.39;1759187;81;20996;-78
2022/10/14 06:19:32;;;;;;;20.32;13.38;;;;;;;9.36;93.91;98050.63;1756002;80;21399;-78
2022/10/14 06:21:59;;;;;;;19.02;10.65;;;;;;;9.34;94.00;98057.71;1760273;80;20953;-79
2022/10/14 06:24:26;;;;;;;18.95;10.93;;;;;;;9.37;94.24;98060.73;1773903;80;21000;-77
2022/10/14 06:26:53;;;;;;;16.17;10.58;;;;;;;9.39;93.86;98056.30;1776344;80;21335;-77
2022/10/14 06:29:19;;;;;;;16.00;10.18;;;;;;;9.38;93.77;98059.38;1780292;80;20961;-77
2022/10/14 06:31:46;;;;;;;15.78;9.63;;;;;;;9.40;94.08;98063.76;1775630;80;21004;-77
2022/10/14 06:34:12;;;;;;;17.77;10.65;;;;;;;9.44;94.02;98067.64;1764212;81;20954;-77
2022/10/14 06:36:38;;;;;;;17.30;10.32;;;;;;;9.43;93.71;98064.55;1760116;80;20977;-77
2022/10/14 06:39:05;;;;;;;18.00;10.70;;;;;;;9.43;93.36;98067.67;1757833;80;21358;-77
2022/10/14 06:41:31;;;;;;;16.42;10.25;;;;;;;9.44;93.58;98074.25;1780998;80;20992;-77
2022/10/14 06:43:58;;;;;;;16.02;10.15;;;;;;;9.48;93.58;98075.04;1755314;80;21009;-78
2022/10/14 06:46:25;;;;;;;19.60;10.15;;;;;;;9.50;93.42;98077.18;1775955;80;21410;-76
2022/10/14 06:48:51;;;;;;;17.95;10.43;;;;;;;9.51;93.53;98071.86;1781108;80;20997;-77
2022/10/14 06:51:18;;;;;;;18.32;10.15;;;;;;;9.57;93.59;98066.00;1779627;80;20981;-76
2022/10/14 06:53:44;;;;;;;17.12;9.35;;;;;;;9.61;93.62;98065.02;1781066;80;21379;-76
2022/10/14 06:56:11;;;;;;;18.17;10.82;;;;;;;9.70;94.04;98069.21;1759686;80;21017;-76
2022/10/14 06:58:38;;;;;;;18.40;10.40;;;;;;;9.80;94.13;98068.55;1753717;80;21447;-76
2022/10/14 07:01:07;;;;;;;18.50;9.83;;;;;;;9.88;93.67;98070.08;1769071;80;21081;-76
2022/10/14 07:03:37;;;;;;;18.10;11.15;;;;;;;9.94;93.38;98080.09;1793727;80;20977;-77
2022/10/14 07:06:08;;;;;;;18.32;10.70;;;;;;;9.94;92.83;98074.80;1795034;80;21011;-77
2022/10/14 07:08:35;;;;;;;16.70;9.70;;;;;;;9.95;93.14;98077.41;1767127;80;21371;-77
2022/10/14 07:11:04;;;;;;;21.37;9.85;;;;;;;9.97;92.87;98076.91;1741927;81;22004;-79
2022/10/14 07:13:30;;;;;;;21.30;10.48;;;;;;;9.99;92.81;98067.61;1767872;80;21608;-79
2022/10/14 07:15:57;;;;;;;20.72;11.43;;;;;;;10.08;93.32;98067.36;1781003;80;20988;-79
2022/10/14 07:18:23;;;;;;;17.30;10.00;;;;;;;10.16;93.23;98074.66;1765560;80;21382;-79
2022/10/14 07:20:50;;;;;;;18.65;11.08;;;;;;;10.26;93.21;98079.72;1794870;80;21016;-79
2022/10/14 07:23:16;;;;;;;20.52;10.15;;;;;;;10.41;93.56;98080.62;1794807;80;21477;-76
2022/10/14 07:25:43;;;;;;;19.73;11.75;;;;;;;10.55;93.15;98080.25;1772988;80;20933;-76
2022/10/14 07:28:10;;;;;;;20.70;10.65;;;;;;;10.62;92.58;98081.40;1794286;80;21020;-76
2022/10/14 07:30:36;;;;;;;21.02;11.28;;;;;;;10.67;91.97;98077.71;1794044;80;20983;-76
2022/10/14 07:33:03;;;;;;;17.60;9.78;;;;;;;10.77;92.44;98083.63;1779932;80;21425;-76
2022/10/14 07:35:30;;;;;;;25.40;11.73;;;;;;;10.86;91.86;98083.81;1785523;80;21048;-76
2022/10/14 07:37:58;;;;;;;18.10;10.15;;;;;;;10.89;92.01;98082.41;1776127;80;20945;-76
2022/10/14 07:40:26;;;;;;;20.23;11.35;;;;;;;11.00;91.80;98085.20;1794921;80;20956;-76
2022/10/14 07:42:52;;;;;;;16.87;10.48;;;;;;;11.01;91.03;98081.63;1783808;80;21091;-76
2022/10/14 07:45:20;;;;;;;16.20;10.25;;;;;;;11.07;91.35;98084.08;1763708;80;21013;-76
2022/10/14 07:47:49;;;;;;;17.73;11.22;;;;;;;11.04;89.45;98081.06;1792121;80;21023;-76
2022/10/14 07:50:16;;;;;;;16.82;10.93;;;;;;;11.01;89.65;98074.52;1775194;80;21012;-76
2022/10/14 07:52:43;;;;;;;17.00;10.75;;;;;;;11.04;90.26;98074.44;1794928;80;20996;-77
2022/10/14 07:55:10;;;;;;;20.35;11.43;;;;;;;11.09;90.42;98071.19;1785401;80;21430;-76
2022/10/14 07:57:36;;;;;;;17.67;10.95;;;;;;;11.18;90.38;98068.70;1773486;80;21067;-76
2022/10/14 08:00:07;;;;;;;18.73;11.03;;;;;;;11.26;89.99;98070.27;1791678;80;20976;-77
2022/10/14 08:02:39;;;;;;;19.45;11.10;;;;;;;11.30;89.80;98059.97;1789119;80;20985;-79
2022/10/14 08:05:06;;;;;;;19.10;10.78;;;;;;;11.40;90.03;98069.38;1780172;80;21033;-77
2022/10/14 08:07:33;;;;;;;21.93;12.00;;;;;;;11.51;89.57;98061.52;1766464;80;21017;-77
2022/10/14 08:10:01;;;;;;;21.30;11.68;;;;;;;11.57;89.41;98070.16;1706164;81;21116;-79
2022/10/14 08:12:28;;;;;;;17.05;10.98;;;;;;;11.67;89.67;98063.22;1714096;82;21509;-77
2022/10/14 08:14:56;;;;;;;17.77;11.50;;;;;;;11.73;88.79;98068.32;1722383;82;20969;-77
2022/10/14 08:17:23;;;;;;;22.82;11.53;;;;;;;11.76;88.87;98066.91;1713776;82;21415;-78
2022/10/14 08:19:50;;;;;;;21.42;11.35;;;;;;;11.82;88.44;98071.13;1710750;82;21020;-78
2022/10/14 08:22:17;;;;;;;17.85;10.65;;;;;;;11.84;88.41;98060.00;1722869;82;21505;-78
2022/10/14 08:24:43;;;;;;;18.42;10.90;;;;;;;11.89;87.02;98062.05;1715564;82;20989;-78
2022/10/14 08:27:10;;;;;;;19.57;11.78;;;;;;;11.93;86.94;98061.02;1723169;82;20981;-78
2022/10/14 08:29:36;;;;;;;16.97;10.48;;;;;;;11.98;87.27;98068.38;1711660;82;21009;-78
2022/10/14 08:32:03;;;;;;;20.68;11.85;;;;;;;12.01;87.28;98066.92;1729302;82;21434;-79
2022/10/14 08:34:30;;;;;;;16.60;11.10;;;;;;;12.05;86.73;98066.86;1719160;82;21000;-79
2022/10/14 08:36:57;;;;;;;21.12;11.30;;;;;;;12.14;87.18;98062.56;1723845;82;21415;-78
2022/10/14 08:39:23;;;;;;;21.10;12.25;;;;;;;12.19;87.46;98067.25;1717090;82;20993;-79
2022/10/14 08:42:18;;;;;;;19.17;10.18;;;;;;;12.26;87.23;98055.95;1720465;82;20978;-79
2022/10/14 08:44:56;;;;;;;18.95;10.88;;;;;;;12.35;87.38;98061.39;1708596;82;21013;-79
2022/10/14 08:47:36;;;;;;;19.32;11.08;;;;;;;12.52;87.23;98056.34;1710475;82;21019;-79
2022/10/14 08:50:45;;;;;;;25.35;11.25;;;;;;;12.66;86.96;98056.27;1691192;82;20989;-77
2022/10/14 08:53:16;;;;;;;19.35;10.82;;;;;;;12.78;86.81;98059.81;1712083;82;21442;-78
2022/10/14 08:55:55;;;;;;;20.52;12.25;;;;;;;12.92;87.36;98055.78;1708551;82;20973;-77
2022/10/14 08:58:45;;;;;;;19.40;11.70;;;;;;;13.05;85.60;98056.16;1708497;82;21048;-77
2022/10/14 09:01:29;;;;;;;21.35;11.48;;;;;;;13.14;86.00;98061.13;1716216;82;21400;-77
2022/10/14 09:04:06;;;;;;;21.95;13.15;;;;;;;13.27;86.16;98058.85;1708634;82;21501;-77
2022/10/14 09:06:35;;;;;;;17.55;11.57;;;;;;;13.41;85.49;98054.30;1712178;82;21402;-78
2022/10/14 09:09:36;;;;;;;21.70;12.28;;;;;;;13.47;84.98;98059.88;1700787;82;21025;-78
2022/10/14 09:12:08;;;;;;;21.20;13.03;;;;;;;13.48;83.77;98054.07;1734627;82;21462;-78
2022/10/14 09:14:39;;;;;;;23.07;13.35;;;;;;;13.57;83.81;98051.04;1737621;82;20986;-78
2022/10/14 09:17:17;;;;;;;19.02;12.07;;;;;;;13.70;84.07;98046.95;1736999;82;20962;-78
2022/10/14 09:19:54;;;;;;;20.43;12.55;;;;;;;13.82;83.16;98047.36;1737806;80;20993;-78
2022/10/14 09:22:23;;;;;;;23.00;14.63;;;;;;;13.94;83.31;98041.52;1737862;82;21008;-78
2022/10/14 09:24:49;;;;;;;22.87;13.48;;;;;;;14.07;82.06;98033.86;1737889;82;21040;-78
2022/10/14 09:27:21;;;;;;;25.72;13.62;;;;;;;14.19;83.13;98040.91;1737175;82;21001;-79
2022/10/14 09:30:01;;;;;;;23.18;13.40;;;;;;;14.31;81.59;98037.73;1737701;82;21025;-78
2022/10/14 09:32:44;;;;;;;20.62;13.15;;;;;;;14.42;81.92;98041.72;1737919;82;21403;-79
2022/10/14 09:35:25;;;;;;;22.13;13.25;;;;;;;14.50;79.17;98044.42;1737814;82;22114;-78
2022/10/14 09:37:52;;;;;;;23.25;13.53;;;;;;;14.57;79.73;98046.84;1728596;82;21438;-78
2022/10/14 09:40:33;;;;;;;20.82;13.00;;;;;;;14.58;79.54;98041.41;1736091;82;21468;-78
2022/10/14 09:43:08;;;;;;;20.80;13.32;;;;;;;14.68;79.96;98040.54;1719618;82;20933;-78
2022/10/14 09:45:53;;;;;;;20.50;12.70;;;;;;;14.80;79.71;98039.60;1736994;80;21001;-78
2022/10/14 09:48:37;;;;;;;22.85;13.10;;;;;;;14.92;80.26;98036.38;1702773;82;21032;-77
2022/10/14 09:51:20;;;;;;;21.75;13.20;;;;;;;15.12;80.22;98037.24;1731690;82;20985;-78
2022/10/14 09:53:52;;;;;;;19.67;12.68;;;;;;;15.30;79.87;98028.81;1732625;82;21024;-78
2022/10/14 09:56:35;;;;;;;20.00;12.93;;;;;;;15.45;79.66;98036.56;1737742;82;21012;-78
2022/10/14 09:59:07;;;;;;;22.58;13.48;;;;;;;15.58;78.66;98032.32;1738087;80;20978;-78
2022/10/14 10:01:41;;;;;;;22.13;12.98;;;;;;;15.75;77.45;98034.64;1733818;82;21462;-79
2022/10/14 10:04:34;;;;;;;20.43;12.60;;;;;;;15.84;75.39;98034.19;1730338;82;20950;-79
2022/10/14 10:07:05;;;;;;;20.80;12.37;;;;;;;15.94;77.24;98033.26;1736982;82;20985;-79
2022/10/14 10:09:33;;;;;;;24.27;13.80;;;;;;;15.99;74.94;98034.37;1737894;82;21040;-78
2022/10/14 10:12:20;;;;;;;26.82;14.43;;;;;;;16.01;74.82;98031.14;1753803;81;20952;-79
2022/10/14 10:14:57;;;;;;;22.37;13.25;;;;;;;16.01;74.73;98034.27;1753622;81;21023;-78
2022/10/14 10:17:26;;;;;;;23.60;13.28;;;;;;;15.99;76.05;98033.05;1741545;81;21088;-79
2022/10/14 10:20:16;;;;;;;23.70;13.78;;;;;;;16.02;76.26;98030.19;1711045;82;20981;-80
2022/10/14 10:22:43;;;;;;;20.88;13.80;;;;;;;16.08;75.14;98035.22;1738416;80;20933;-79
2022/10/14 10:25:15;;;;;;;25.68;13.95;;;;;;;16.29;75.93;98027.50;1752573;80;20976;-79
2022/10/14 10:27:45;;;;;;;24.45;14.07;;;;;;;16.57;75.45;98029.56;1755336;81;20985;-79
2022/10/14 10:30:28;;;;;;;24.45;14.00;;;;;;;16.71;75.62;98027.97;1755340;80;21012;-80
2022/10/14 10:33:23;;;;;;;22.80;13.30;;;;;;;16.88;75.17;98029.27;1755458;81;21350;-79
2022/10/14 10:36:16;;;;;;;;;;;;;;;16.98;73.90;98021.56;1758166;80;21322;-79
2022/10/14 10:39:01;;;;;;;20.45;12.23;;;;;;;17.33;73.03;98017.91;1721685;81;20099;-80
2022/10/14 10:41:40;;;;;;;18.12;12.07;;;;;;;17.87;71.57;98013.04;1743790;81;21419;-79
2022/10/14 10:44:41;;;;;;;17.77;11.08;;;;;;;18.85;66.89;98008.00;1755406;81;20961;-79
2022/10/14 10:47:45;;;;;;;19.42;10.40;;;;;;;20.77;65.26;97995.80;1704343;83;21462;-79
2022/10/14 10:50:27;;;;;;;17.25;10.55;;;;;;;20.77;65.26;97995.80;1718773;81;21000;-80
2022/10/14 10:53:21;;;;;;;16.60;10.43;;;;;;;21.65;60.36;97989.01;1755376;80;21351;-80
2022/10/14 10:56:26;;;;;;;19.52;11.53;;;;;;;22.38;58.70;97987.04;1725382;82;20968;-78
2022/10/14 10:59:14;;;;;;;10.72;9.08;;;;;;;23.05;57.55;97983.14;1755135;80;20988;-80
2022/10/14 11:02:04;;;;;;;16.93;10.82;;;;;;;22.80;56.15;97977.02;1755521;81;21569;-79
2022/10/14 11:04:50;;;;;;;13.38;9.00;;;;;;;22.97;54.43;97977.52;1739270;80;21004;-80
2022/10/14 11:13:25;;;;;;;20.57;12.53;;;;;;;21.66;55.62;97971.38;1707645;83;20972;-79
2022/10/14 11:16:10;;;;;;;15.20;10.00;;;;;;;21.18;55.18;97970.89;1685069;83;21012;-79
2022/10/14 11:19:12;;;;;;;14.55;10.58;;;;;;;20.97;55.89;97978.23;1681071;83;21055;-79
2022/10/14 11:21:59;;;;;;;16.37;10.65;;;;;;;20.34;55.32;97974.98;1680398;83;20980;-79
2022/10/14 11:25:14;;;;;;;14.45;9.88;;;;;;;19.76;56.23;97970.80;1652880;85;21088;-79
2022/10/14 11:27:46;;;;;;;18.55;11.20;;;;;;;19.47;58.42;97963.38;1719978;82;21520;-79
2022/10/14 11:30:21;;;;;;;17.85;10.15;;;;;;;19.01;58.97;97969.41;1687510;83;20992;-79
2022/10/14 11:33:25;;;;;;;16.30;9.45;;;;;;;18.78;59.97;97964.19;1709690;82;20991;-79
2022/10/14 11:36:24;;;;;;;15.88;10.13;;;;;;;18.57;60.36;97964.60;1725340;82;20980;-79
2022/10/14 11:39:14;;;;;;;13.22;9.58;;;;;;;18.35;60.71;97967.27;1715338;82;21086;-79
2022/10/14 11:42:19;;;;;;;17.42;10.10;;;;;;;18.09;61.62;97964.88;1702859;83;21003;-79
2022/10/14 11:44:51;;;;;;;14.83;9.00;;;;;;;17.98;62.46;97960.97;1680353;83;21064;-79
2022/10/14 11:47:26;;;;;;;17.23;9.58;;;;;;;17.77;62.64;97955.11;1692746;83;20993;-79
2022/10/14 11:50:06;;;;;;;14.23;8.80;;;;;;;17.70;62.75;97952.39;1687765;83;21578;-79
2022/10/14 11:52:38;;;;;;;14.87;9.65;;;;;;;17.67;63.10;97948.08;1726843;82;21023;-79
2022/10/14 11:55:19;;;;;;;16.12;10.10;;;;;;;17.55;63.49;97947.86;1705190;82;21061;-79